createdAt,value
2017-09-17T00:01:22.180Z,8.90
2017-09-17T00:03:49.747Z,8.90
2017-09-17T00:06:17.320Z,8.90
2017-09-17T00:08:44.883Z,9.00
2017-09-17T00:11:12.488Z,9.00
2017-09-17T00:13:40.068Z,9.00
2017-09-17T00:16:07.615Z,9.00
2017-09-17T00:18:35.235Z,9.10
2017-09-17T00:21:03.081Z,9.10
2017-09-17T00:23:30.661Z,9.10
2017-09-17T00:25:58.233Z,9.10
2017-09-17T00:28:26.710Z,9.10
2017-09-17T00:30:54.283Z,9.10
2017-09-17T00:33:22.605Z,9.20
2017-09-17T00:35:52.517Z,9.20
2017-09-17T00:38:22.037Z,9.30
2017-09-17T00:40:50.788Z,9.30
2017-09-17T00:43:19.685Z,9.30
2017-09-17T00:45:48.674Z,9.20
2017-09-17T00:48:16.266Z,9.20
2017-09-17T00:50:43.909Z,9.20
2017-09-17T00:53:11.526Z,9.20
2017-09-17T00:55:42.015Z,9.10
2017-09-17T00:58:10.452Z,9.10
2017-09-17T01:00:38.080Z,9.10
2017-09-17T01:03:05.647Z,9.10
2017-09-17T01:05:33.221Z,9.00
2017-09-17T01:08:01.554Z,9.00
2017-09-17T01:10:29.125Z,9.00
2017-09-17T01:12:56.682Z,9.00
2017-09-17T01:15:24.246Z,9.00
2017-09-17T01:17:51.826Z,9.10
2017-09-17T01:20:19.378Z,9.10
2017-09-17T01:22:46.958Z,9.10
2017-09-17T01:25:15.284Z,9.20
2017-09-17T01:27:42.869Z,9.20
2017-09-17T01:30:10.434Z,9.20
2017-09-17T01:32:37.993Z,9.10
2017-09-17T01:35:05.546Z,9.10
2017-09-17T01:37:33.107Z,9.10
2017-09-17T01:40:00.666Z,9.00
2017-09-17T01:42:28.298Z,9.00
2017-09-17T01:44:55.858Z,9.00
2017-09-17T01:47:23.433Z,9.00
2017-09-17T01:49:51.002Z,9.00
2017-09-17T01:52:18.574Z,9.10
2017-09-17T01:54:46.127Z,9.10
2017-09-17T01:57:13.678Z,9.20
2017-09-17T01:59:41.319Z,9.20
2017-09-17T02:02:08.936Z,9.20
2017-09-17T02:04:37.309Z,9.20
2017-09-17T02:07:05.669Z,9.10
2017-09-17T02:09:33.266Z,9.10
2017-09-17T02:12:01.589Z,9.10
2017-09-17T02:14:29.189Z,9.00
2017-09-17T02:16:57.615Z,9.00
2017-09-17T02:19:25.974Z,9.00
2017-09-17T02:21:53.529Z,9.00
2017-09-17T02:24:21.113Z,9.00
2017-09-17T02:26:48.690Z,9.00
2017-09-17T02:29:16.250Z,9.00
2017-09-17T02:31:43.804Z,9.00
2017-09-17T02:34:11.354Z,8.90
2017-09-17T02:36:38.963Z,8.80
2017-09-17T02:39:06.516Z,8.80
2017-09-17T02:41:34.149Z,8.80
2017-09-17T02:44:01.727Z,8.70
2017-09-17T02:46:29.288Z,8.70
2017-09-17T02:48:56.858Z,8.70
2017-09-17T02:51:24.414Z,8.60
2017-09-17T02:53:52.012Z,8.50
2017-09-17T02:56:19.556Z,8.50
2017-09-17T02:58:47.879Z,8.40
2017-09-17T03:01:15.435Z,8.40
2017-09-17T03:03:42.993Z,8.40
2017-09-17T03:06:10.553Z,8.40
2017-09-17T03:08:38.126Z,8.30
2017-09-17T03:11:05.682Z,8.30
2017-09-17T03:13:33.235Z,8.30
2017-09-17T03:16:01.588Z,8.30
2017-09-17T03:18:29.138Z,8.30
2017-09-17T03:20:57.472Z,8.20
2017-09-17T03:23:25.042Z,8.20
2017-09-17T03:25:52.609Z,8.20
2017-09-17T03:28:20.182Z,8.20
2017-09-17T03:33:23.231Z,8.10
2017-09-17T03:35:50.783Z,8.10
2017-09-17T03:38:18.334Z,8.10
2017-09-17T03:40:45.889Z,8.10
2017-09-17T03:43:13.471Z,8.00
2017-09-17T03:45:41.060Z,8.00
2017-09-17T03:48:08.611Z,7.90
2017-09-17T03:50:36.178Z,7.90
2017-09-17T03:53:03.749Z,7.90
2017-09-17T03:55:31.304Z,7.90
2017-09-17T03:57:58.846Z,7.90
2017-09-17T04:00:26.409Z,7.80
2017-09-17T04:02:54.003Z,7.80
2017-09-17T04:05:21.555Z,7.80
2017-09-17T04:07:49.136Z,7.80
2017-09-17T04:10:17.470Z,7.70
2017-09-17T04:12:45.019Z,7.60
2017-09-17T04:15:12.589Z,7.70
2017-09-17T04:17:40.142Z,7.70
2017-09-17T04:20:07.695Z,7.70
2017-09-17T04:22:35.282Z,7.70
2017-09-17T04:25:02.862Z,7.60
2017-09-17T04:27:31.204Z,7.70
2017-09-17T04:29:59.371Z,7.60
2017-09-17T04:32:26.945Z,7.60
2017-09-17T04:34:54.485Z,7.60
2017-09-17T04:37:22.041Z,7.50
2017-09-17T04:39:49.569Z,7.50
2017-09-17T04:42:17.183Z,7.50
2017-09-17T04:44:44.741Z,7.50
2017-09-17T04:47:12.313Z,7.50
2017-09-17T04:49:39.881Z,7.50
2017-09-17T04:52:07.429Z,7.40
2017-09-17T04:54:34.989Z,7.40
2017-09-17T04:57:02.549Z,7.40
2017-09-17T04:59:30.145Z,7.40
2017-09-17T05:01:57.701Z,7.40
2017-09-17T05:04:26.053Z,7.50
2017-09-17T05:06:53.609Z,7.40
2017-09-17T05:09:21.229Z,7.50
2017-09-17T05:11:48.821Z,7.50
2017-09-17T05:14:16.386Z,7.50
2017-09-17T05:16:43.923Z,7.40
2017-09-17T05:19:11.500Z,7.50
2017-09-17T05:21:39.054Z,7.50
2017-09-17T05:24:06.617Z,7.50
2017-09-17T05:26:34.185Z,7.60
2017-09-17T05:29:01.740Z,7.70
2017-09-17T05:31:29.308Z,7.70
2017-09-17T05:33:56.859Z,7.80
2017-09-17T05:36:24.416Z,7.80
2017-09-17T05:38:51.962Z,7.90
2017-09-17T05:41:19.538Z,7.90
2017-09-17T05:43:47.082Z,8.00
2017-09-17T05:46:14.649Z,8.00
2017-09-17T05:48:42.206Z,8.00
2017-09-17T05:51:09.748Z,8.00
2017-09-17T05:53:37.469Z,8.00
2017-09-17T05:56:05.816Z,8.00
2017-09-17T05:58:33.366Z,7.90
2017-09-17T06:01:00.928Z,8.00
2017-09-17T06:03:28.513Z,8.00
2017-09-17T06:05:56.066Z,8.10
2017-09-17T06:08:23.622Z,8.10
2017-09-17T06:10:51.181Z,8.20
2017-09-17T06:13:18.752Z,8.20
2017-09-17T06:15:46.318Z,8.30
2017-09-17T06:18:13.865Z,8.40
2017-09-17T06:20:41.408Z,8.50
2017-09-17T06:23:08.972Z,8.60
2017-09-17T06:25:36.518Z,8.70
2017-09-17T06:28:04.073Z,8.80
2017-09-17T06:30:31.634Z,8.90
2017-09-17T06:32:59.210Z,9.00
2017-09-17T06:35:26.800Z,9.10
2017-09-17T06:37:58.044Z,9.20
2017-09-17T06:40:26.400Z,9.40
2017-09-17T06:42:56.207Z,9.40
2017-09-17T06:45:23.990Z,9.50
2017-09-17T06:47:51.614Z,9.50
2017-09-17T06:50:19.179Z,9.60
2017-09-17T06:52:46.755Z,9.60
2017-09-17T06:55:15.490Z,9.70
2017-09-17T06:57:43.851Z,9.90
2017-09-17T07:00:11.434Z,9.80
2017-09-17T07:02:39.005Z,10.00
2017-09-17T07:05:06.556Z,9.90
2017-09-17T07:07:34.890Z,10.10
2017-09-17T07:10:02.491Z,10.10
2017-09-17T07:12:30.836Z,10.20
2017-09-17T07:14:58.428Z,10.20
2017-09-17T07:17:26.774Z,10.50
2017-09-17T07:19:54.340Z,10.50
2017-09-17T07:22:21.907Z,10.60
2017-09-17T07:24:50.833Z,10.60
2017-09-17T07:27:18.402Z,10.70
2017-09-17T07:29:45.981Z,10.80
2017-09-17T07:32:14.328Z,11.10
2017-09-17T07:34:45.259Z,11.30
2017-09-17T07:39:50.227Z,11.40
2017-09-17T07:42:17.798Z,11.40
2017-09-17T07:44:45.404Z,11.50
2017-09-17T07:47:23.146Z,11.60
2017-09-17T07:49:50.695Z,11.80
2017-09-17T07:52:19.444Z,11.90
2017-09-17T07:54:46.998Z,11.80
2017-09-17T07:57:14.608Z,11.90
2017-09-17T07:59:42.943Z,11.70
2017-09-17T08:02:10.524Z,11.70
2017-09-17T08:04:38.094Z,11.80
2017-09-17T08:07:05.696Z,11.80
2017-09-17T08:09:33.270Z,12.00
2017-09-17T08:12:00.837Z,12.20
2017-09-17T08:14:28.412Z,12.50
2017-09-17T08:16:56.002Z,12.60
2017-09-17T08:19:23.558Z,12.70
2017-09-17T08:21:51.933Z,12.90
2017-09-17T08:24:20.293Z,12.70
2017-09-17T08:26:47.883Z,12.70
2017-09-17T08:29:16.231Z,12.90
2017-09-17T08:31:43.805Z,12.90
2017-09-17T08:34:12.151Z,13.20
2017-09-17T08:36:39.749Z,13.10
2017-09-17T08:39:08.098Z,13.90
2017-09-17T08:41:35.668Z,13.80
2017-09-17T08:44:03.248Z,14.00
2017-09-17T08:46:31.581Z,13.80
2017-09-17T08:48:59.159Z,13.80
2017-09-17T08:51:26.748Z,13.80
2017-09-17T08:53:55.102Z,14.00
2017-09-17T08:56:22.658Z,14.00
2017-09-17T08:58:50.883Z,13.70
2017-09-17T09:01:18.442Z,13.80
2017-09-17T09:03:46.007Z,14.00
2017-09-17T09:06:13.581Z,14.10
2017-09-17T09:08:41.135Z,14.00
2017-09-17T09:11:08.731Z,14.40
2017-09-17T09:13:36.292Z,14.40
2017-09-17T09:16:03.865Z,14.40
2017-09-17T09:18:31.439Z,14.60
2017-09-17T09:20:59.029Z,14.30
2017-09-17T09:23:26.603Z,14.60
2017-09-17T09:25:54.185Z,14.70
2017-09-17T09:28:21.785Z,14.90
2017-09-17T09:30:50.095Z,14.80
2017-09-17T09:33:17.670Z,14.80
2017-09-17T09:35:45.239Z,15.00
2017-09-17T09:38:12.835Z,15.50
2017-09-17T09:40:41.178Z,15.70
2017-09-17T09:43:08.755Z,15.70
2017-09-17T09:45:36.330Z,15.70
2017-09-17T09:48:03.936Z,15.60
2017-09-17T09:50:32.036Z,15.60
2017-09-17T09:52:59.648Z,15.60
2017-09-17T09:55:27.269Z,15.40
2017-09-17T09:57:54.907Z,15.20
2017-09-17T10:00:22.948Z,15.30
2017-09-17T10:02:50.552Z,15.60
2017-09-17T10:05:18.605Z,15.70
2017-09-17T10:07:46.230Z,15.90
2017-09-17T10:10:13.844Z,16.00
2017-09-17T10:12:41.700Z,16.20
2017-09-17T10:15:09.335Z,16.30
2017-09-17T10:17:38.705Z,16.30
2017-09-17T10:20:06.283Z,16.30
2017-09-17T10:22:34.636Z,16.80
2017-09-17T10:25:02.196Z,16.70
2017-09-17T10:27:31.274Z,16.40
2017-09-17T10:30:16.768Z,16.40
2017-09-17T10:32:45.259Z,16.30
2017-09-17T10:35:12.822Z,16.20
2017-09-17T10:37:40.402Z,16.30
2017-09-17T10:40:10.724Z,16.20
2017-09-17T10:42:40.162Z,16.20
2017-09-17T10:45:09.655Z,16.30
2017-09-17T10:47:37.337Z,16.40
2017-09-17T10:50:05.037Z,16.00
2017-09-17T10:52:38.854Z,16.40
2017-09-17T10:55:07.215Z,16.80
2017-09-17T10:57:34.794Z,16.70
2017-09-17T11:00:03.143Z,17.60
2017-09-17T11:02:30.737Z,17.60
2017-09-17T11:04:59.051Z,18.00
2017-09-17T11:07:26.668Z,18.00
2017-09-17T11:09:55.032Z,19.00
2017-09-17T11:12:22.612Z,19.00
2017-09-17T11:14:50.942Z,20.00
2017-09-17T11:17:18.570Z,20.00
2017-09-17T11:19:46.117Z,20.00
2017-09-17T11:22:14.439Z,19.30
2017-09-17T11:24:42.010Z,19.30
2017-09-17T11:27:09.660Z,18.80
2017-09-17T11:29:38.222Z,19.10
2017-09-17T11:32:05.773Z,19.60
2017-09-17T11:34:33.366Z,20.30
2017-09-17T11:37:01.710Z,20.40
2017-09-17T11:39:29.288Z,20.40
2017-09-17T11:41:57.001Z,20.30
2017-09-17T11:44:24.585Z,20.00
2017-09-17T11:46:52.906Z,20.00
2017-09-17T11:49:27.522Z,20.00
2017-09-17T11:51:55.130Z,19.60
2017-09-17T11:54:25.013Z,19.60
2017-09-17T11:57:05.904Z,19.60
2017-09-17T11:59:33.506Z,20.30
2017-09-17T12:02:03.032Z,18.50
2017-09-17T12:04:31.369Z,18.50
2017-09-17T12:06:58.973Z,18.50
2017-09-17T12:09:39.890Z,19.20
2017-09-17T12:12:09.275Z,19.90
2017-09-17T12:14:37.630Z,20.30
2017-09-17T12:17:05.191Z,20.30
2017-09-17T12:19:34.609Z,20.50
2017-09-17T12:22:02.257Z,20.60
2017-09-17T12:24:30.952Z,20.90
2017-09-17T12:26:59.548Z,20.90
2017-09-17T12:29:27.132Z,20.20
2017-09-17T12:31:55.459Z,20.60
2017-09-17T12:34:23.009Z,20.60
2017-09-17T12:36:50.588Z,20.60
2017-09-17T12:39:18.177Z,21.00
2017-09-17T12:41:46.546Z,21.70
2017-09-17T12:44:14.876Z,21.20
2017-09-17T12:46:42.458Z,21.20
2017-09-17T12:49:14.496Z,21.20
2017-09-17T12:51:42.078Z,20.80
2017-09-17T12:54:09.663Z,20.30
2017-09-17T12:56:37.310Z,20.10
2017-09-17T12:59:04.922Z,19.90
2017-09-17T13:01:32.484Z,19.10
2017-09-17T13:04:00.818Z,19.90
2017-09-17T13:06:28.409Z,19.80
2017-09-17T13:09:13.422Z,19.90
2017-09-17T13:11:41.932Z,19.90
2017-09-17T13:14:11.554Z,20.90
2017-09-17T13:16:39.102Z,20.80
2017-09-17T13:19:07.427Z,21.00
2017-09-17T13:21:35.001Z,21.00
2017-09-17T13:24:02.545Z,21.50
2017-09-17T13:26:30.089Z,22.00
2017-09-17T13:28:57.680Z,22.30
2017-09-17T13:31:25.255Z,22.60
2017-09-17T13:33:52.851Z,22.30
2017-09-17T13:36:21.165Z,21.40
2017-09-17T13:38:48.738Z,21.30
2017-09-17T13:41:16.301Z,21.50
2017-09-17T13:43:43.850Z,20.90
2017-09-17T13:46:11.435Z,19.80
2017-09-17T13:48:39.011Z,19.80
2017-09-17T13:51:06.599Z,19.50
2017-09-17T13:53:34.173Z,19.40
2017-09-17T13:56:01.764Z,20.00
2017-09-17T13:58:29.316Z,20.50
2017-09-17T14:00:56.894Z,20.40
2017-09-17T14:03:26.010Z,19.40
2017-09-17T14:06:00.148Z,19.60
2017-09-17T14:08:31.301Z,19.60
2017-09-17T14:10:58.881Z,19.00
2017-09-17T14:13:26.439Z,18.70
2017-09-17T14:15:54.055Z,18.90
2017-09-17T14:18:22.692Z,19.90
2017-09-17T14:20:50.334Z,19.80
2017-09-17T14:23:17.913Z,19.50
2017-09-17T14:25:45.482Z,19.70
2017-09-17T14:28:13.062Z,19.10
2017-09-17T14:30:40.642Z,18.50
2017-09-17T14:33:08.210Z,17.80
2017-09-17T14:35:36.554Z,17.00
2017-09-17T14:38:04.119Z,17.00
2017-09-17T14:40:31.670Z,16.90
2017-09-17T14:42:59.227Z,16.70
2017-09-17T14:45:26.815Z,16.90
2017-09-17T14:47:54.385Z,17.20
2017-09-17T14:50:22.725Z,17.40
2017-09-17T14:52:50.401Z,17.40
2017-09-17T14:55:17.982Z,17.10
2017-09-17T14:57:45.899Z,16.80
2017-09-17T15:00:13.588Z,16.80
2017-09-17T15:02:41.216Z,17.00
2017-09-17T15:05:08.779Z,17.10
2017-09-17T15:07:36.356Z,17.00
2017-09-17T15:10:03.933Z,17.20
2017-09-17T15:12:31.514Z,17.20
2017-09-17T15:14:59.867Z,17.00
2017-09-17T15:17:27.455Z,17.00
2017-09-17T15:19:56.610Z,17.20
2017-09-17T15:22:24.193Z,17.20
2017-09-17T15:24:51.798Z,17.00
2017-09-17T15:27:19.354Z,16.90
2017-09-17T15:29:47.269Z,17.00
2017-09-17T15:32:14.909Z,17.30
2017-09-17T15:34:42.498Z,17.40
2017-09-17T15:37:11.892Z,17.50
2017-09-17T15:39:39.853Z,17.30
2017-09-17T15:42:07.912Z,17.60
2017-09-17T15:44:35.523Z,17.60
2017-09-17T15:47:03.969Z,17.40
2017-09-17T15:49:31.549Z,17.40
2017-09-17T15:51:59.546Z,16.90
2017-09-17T15:54:29.277Z,16.80
2017-09-17T15:57:00.861Z,16.80
2017-09-17T15:59:30.781Z,17.00
2017-09-17T16:02:13.811Z,16.80
2017-09-17T16:04:43.340Z,16.80
2017-09-17T16:07:12.550Z,16.40
2017-09-17T16:09:44.451Z,16.10
2017-09-17T16:12:12.942Z,16.10
2017-09-17T16:14:42.660Z,16.10
2017-09-17T16:21:24.087Z,16.20
2017-09-17T16:26:33.326Z,16.80
2017-09-17T16:29:02.082Z,17.00
2017-09-17T16:31:33.662Z,17.00
2017-09-17T16:34:01.428Z,17.00
2017-09-17T16:36:28.990Z,17.10
2017-09-17T16:38:56.541Z,17.10
2017-09-17T16:41:24.142Z,17.00
2017-09-17T16:43:51.718Z,17.00
2017-09-17T16:46:20.100Z,16.90
2017-09-17T16:48:48.450Z,16.50
2017-09-17T16:51:16.023Z,16.40
2017-09-17T16:53:43.616Z,16.40
2017-09-17T16:56:11.229Z,16.30
2017-09-17T16:58:38.822Z,16.40
2017-09-17T17:01:07.172Z,15.90
2017-09-17T17:03:34.743Z,15.90
2017-09-17T17:06:02.348Z,15.70
2017-09-17T17:08:29.985Z,15.70
2017-09-17T17:10:57.619Z,15.70
2017-09-17T17:13:27.715Z,15.50
2017-09-17T17:15:55.332Z,15.40
2017-09-17T17:18:23.687Z,15.30
2017-09-17T17:20:51.273Z,15.30
2017-09-17T17:23:24.727Z,15.50
2017-09-17T17:25:52.317Z,15.50
2017-09-17T17:28:19.879Z,15.70
2017-09-17T17:30:47.462Z,15.50
2017-09-17T17:33:15.778Z,15.30
2017-09-17T17:35:43.375Z,15.30
2017-09-17T17:38:10.959Z,15.30
2017-09-17T17:40:39.310Z,15.20
2017-09-17T17:43:07.685Z,15.20
2017-09-17T17:45:35.259Z,15.20
2017-09-17T17:48:03.622Z,15.10
2017-09-17T17:50:31.705Z,15.00
2017-09-17T17:52:59.288Z,14.90
2017-09-17T17:55:27.618Z,14.80
2017-09-17T17:57:55.180Z,14.70
2017-09-17T18:00:22.883Z,14.70
2017-09-17T18:02:51.228Z,14.60
2017-09-17T18:05:18.765Z,14.60
2017-09-17T18:07:46.313Z,14.70
2017-09-17T18:10:13.893Z,14.70
2017-09-17T18:12:41.455Z,14.70
2017-09-17T18:15:09.084Z,14.60
2017-09-17T18:17:37.437Z,14.50
2017-09-17T18:20:05.757Z,14.60
2017-09-17T18:22:33.309Z,14.50
2017-09-17T18:25:00.938Z,14.50
2017-09-17T18:27:29.388Z,14.40
2017-09-17T18:29:56.963Z,14.40
2017-09-17T18:32:25.416Z,14.30
2017-09-17T18:34:53.034Z,14.20
2017-09-17T18:37:20.672Z,14.20
2017-09-17T18:39:49.026Z,14.10
2017-09-17T18:42:16.614Z,14.10
2017-09-17T18:44:44.210Z,14.10
2017-09-17T18:47:11.814Z,14.10
2017-09-17T18:49:39.403Z,14.10
2017-09-17T18:52:07.038Z,14.10
2017-09-17T18:54:34.632Z,14.10
2017-09-17T18:57:02.277Z,14.10
2017-09-17T18:59:30.741Z,14.00
2017-09-17T19:01:58.358Z,14.10
2017-09-17T19:04:26.752Z,14.00
2017-09-17T19:06:54.346Z,14.00
2017-09-17T19:09:21.926Z,14.00
2017-09-17T19:11:50.254Z,14.00
2017-09-17T19:14:17.826Z,13.90
2017-09-17T19:16:45.395Z,13.90
2017-09-17T19:19:13.007Z,13.90
2017-09-17T19:21:40.577Z,13.90
2017-09-17T19:24:08.316Z,13.80
2017-09-17T19:26:36.013Z,13.70
2017-09-17T19:29:04.364Z,13.60
2017-09-17T19:31:31.923Z,13.60
2017-09-17T19:33:59.508Z,13.50
2017-09-17T19:36:27.110Z,13.50
2017-09-17T19:38:54.669Z,13.50
2017-09-17T19:41:22.273Z,13.50
2017-09-17T19:43:49.818Z,13.40
2017-09-17T19:46:18.155Z,13.40
2017-09-17T19:48:45.726Z,13.40
2017-09-17T19:51:13.338Z,13.30
2017-09-17T19:53:40.963Z,13.30
2017-09-17T19:56:09.318Z,13.10
2017-09-17T19:58:36.929Z,13.10
2017-09-17T20:01:04.497Z,13.10
2017-09-17T20:03:32.076Z,13.10
2017-09-17T20:05:59.652Z,13.00
2017-09-17T20:08:30.273Z,12.90
2017-09-17T20:10:57.876Z,12.80
2017-09-17T20:13:26.236Z,12.70
2017-09-17T20:15:53.828Z,12.70
2017-09-17T20:18:25.798Z,12.60
2017-09-17T20:20:53.955Z,12.60
2017-09-17T20:23:24.486Z,12.60
2017-09-17T20:25:52.362Z,12.50
2017-09-17T20:28:22.141Z,12.40
2017-09-17T20:30:50.237Z,12.40
2017-09-17T20:33:18.579Z,12.30
2017-09-17T20:35:48.954Z,12.20
2017-09-17T20:38:17.296Z,12.10
2017-09-17T20:40:44.866Z,12.10
2017-09-17T20:43:14.682Z,12.00
2017-09-17T20:45:42.253Z,11.90
2017-09-17T20:48:10.623Z,11.80
2017-09-17T20:50:38.771Z,11.80
2017-09-17T20:53:06.381Z,11.70
2017-09-17T20:55:34.000Z,11.70
2017-09-17T20:58:02.108Z,11.80
2017-09-17T21:00:30.439Z,11.80
2017-09-17T21:03:03.983Z,11.80
2017-09-17T21:05:32.349Z,11.80
2017-09-17T21:07:59.982Z,11.80
2017-09-17T21:10:27.538Z,11.80
2017-09-17T21:12:55.106Z,11.80
2017-09-17T21:15:22.686Z,11.80
2017-09-17T21:17:50.387Z,11.70
2017-09-17T21:20:18.060Z,11.70
2017-09-17T21:22:45.619Z,11.70
2017-09-17T21:25:13.307Z,11.70
2017-09-17T21:27:40.884Z,11.70
2017-09-17T21:30:08.463Z,11.70
2017-09-17T21:32:36.774Z,11.70
2017-09-17T21:35:04.335Z,11.70
2017-09-17T21:37:31.922Z,11.70
2017-09-17T21:39:59.509Z,11.70
2017-09-17T21:42:27.117Z,11.70
2017-09-17T21:44:56.525Z,11.80
2017-09-17T21:47:28.279Z,11.80
2017-09-17T21:49:56.219Z,11.90
2017-09-17T21:52:23.818Z,11.80
2017-09-17T21:54:51.387Z,11.90
2017-09-17T21:57:37.711Z,11.80
2017-09-17T22:00:10.708Z,11.90
2017-09-17T22:09:21.581Z,11.90
2017-09-17T22:11:51.678Z,11.80
2017-09-17T22:14:33.548Z,11.80
2017-09-17T22:17:02.334Z,11.70
2017-09-17T22:19:33.839Z,11.60
2017-09-17T22:22:01.529Z,11.60
2017-09-17T22:24:29.866Z,11.60
2017-09-17T22:26:58.913Z,11.70
2017-09-17T22:29:26.577Z,11.70
2017-09-17T22:31:55.721Z,11.60
2017-09-17T22:34:24.877Z,11.60
2017-09-17T22:36:52.573Z,11.50
2017-09-17T22:39:20.227Z,11.60
2017-09-17T22:41:47.822Z,11.50
2017-09-17T22:44:16.156Z,11.50
2017-09-17T22:46:43.708Z,11.50
2017-09-17T22:49:11.282Z,11.40
2017-09-17T22:51:38.866Z,11.50
2017-09-17T22:54:07.229Z,11.40
2017-09-17T22:56:34.785Z,11.40
2017-09-17T22:59:02.369Z,11.40
2017-09-17T23:01:30.704Z,11.40
2017-09-17T23:03:58.285Z,11.40
2017-09-17T23:06:25.932Z,11.40
2017-09-17T23:08:54.001Z,11.50
2017-09-17T23:11:21.571Z,11.50
2017-09-17T23:13:51.840Z,11.50
2017-09-17T23:16:19.397Z,11.50
2017-09-17T23:18:47.713Z,11.50
2017-09-17T23:21:15.288Z,11.40
2017-09-17T23:23:42.862Z,11.40
2017-09-17T23:26:10.413Z,11.40
2017-09-17T23:28:38.005Z,11.40
2017-09-17T23:31:06.338Z,11.40
2017-09-17T23:33:33.950Z,11.40
2017-09-17T23:36:02.265Z,11.40
2017-09-17T23:38:29.838Z,11.40
2017-09-17T23:40:57.394Z,11.30
2017-09-17T23:43:24.986Z,11.40
2017-09-17T23:45:53.322Z,11.40
2017-09-17T23:48:20.871Z,11.40
2017-09-17T23:50:48.455Z,11.40
2017-09-17T23:53:16.044Z,11.50
2017-09-17T23:55:43.660Z,11.50
2017-09-17T23:58:11.257Z,11.40
